createdAt,value
2023-02-21T00:02:33.925Z,102246.38
2023-02-21T00:05:18.899Z,102242.88
2023-02-21T00:08:03.792Z,102238.53
2023-02-21T00:10:48.716Z,102235.91
2023-02-21T00:13:33.929Z,102231.56
2023-02-21T00:16:18.681Z,102228.03
2023-02-21T00:19:03.501Z,102229.78
2023-02-21T00:21:48.691Z,102235.91
2023-02-21T00:24:35.963Z,102242.03
2023-02-21T00:27:21.669Z,102238.56
2023-02-21T00:30:08.439Z,102234.19
2023-02-21T00:32:53.370Z,102241.13
2023-02-21T00:35:38.874Z,102241.13
2023-02-21T00:38:26.360Z,102239.38
2023-02-21T00:41:11.998Z,102246.38
2023-02-21T00:43:56.880Z,102238.53
2023-02-21T00:46:41.715Z,102238.56
2023-02-21T00:49:27.044Z,102244.66
2023-02-21T00:52:12.425Z,102240.31
2023-02-21T00:54:57.304Z,102235.97
2023-02-21T00:57:42.659Z,102234.19
2023-02-21T01:00:33.869Z,102228.94
2023-02-21T01:03:18.512Z,102218.47
2023-02-21T01:06:03.860Z,102223.69
2023-02-21T01:08:48.601Z,102221.19
2023-02-21T01:11:36.422Z,102215.94
2023-02-21T01:14:21.646Z,102218.56
2023-02-21T01:17:12.965Z,102211.59
2023-02-21T01:19:59.373Z,102209.88
2023-02-21T01:22:44.180Z,102215.97
2023-02-21T01:25:28.873Z,102218.56
2023-02-21T01:28:14.096Z,102205.47
2023-02-21T01:30:59.330Z,102203.75
2023-02-21T01:33:44.269Z,102216.84
2023-02-21T01:36:29.595Z,102202.06
2023-02-21T01:39:14.454Z,102203.78
2023-02-21T01:41:59.556Z,102196.78
2023-02-21T01:44:59.629Z,102196.78
2023-02-21T01:47:45.391Z,102193.28
2023-02-21T01:50:46.890Z,102203.69
2023-02-21T01:53:41.381Z,102205.41
2023-02-21T01:56:27.734Z,102194.06
2023-02-21T01:59:17.773Z,102197.56
2023-02-21T02:02:12.739Z,102194.06
2023-02-21T02:04:59.580Z,102192.38
2023-02-21T02:07:44.466Z,102190.66
2023-02-21T02:10:31.339Z,102184.53
2023-02-21T02:13:14.470Z,102192.38
2023-02-21T02:15:57.106Z,102188.84
2023-02-21T02:18:50.137Z,102185.31
2023-02-21T02:21:34.453Z,102189.66
2023-02-21T02:24:06.850Z,102190.50
2023-02-21T02:27:07.181Z,102183.53
2023-02-21T02:29:59.496Z,102191.38
2023-02-21T02:32:58.117Z,102183.53
2023-02-21T02:35:56.637Z,102185.25
2023-02-21T02:38:50.725Z,102179.13
2023-02-21T02:41:51.153Z,102180.03
2023-02-21T02:44:29.677Z,102176.47
2023-02-21T02:47:00.915Z,102179.09
2023-02-21T02:49:31.157Z,102189.56
2023-02-21T02:52:04.135Z,102191.34
2023-02-21T02:54:30.478Z,102190.44
2023-02-21T02:56:56.920Z,102196.53
2023-02-21T02:59:29.151Z,102192.16
2023-02-21T03:02:46.384Z,102195.63
2023-02-21T03:05:34.109Z,102190.38
2023-02-21T03:08:22.381Z,102180.81
2023-02-21T03:11:06.094Z,102181.75
2023-02-21T03:13:56.659Z,102180.00
2023-02-21T03:16:31.473Z,102175.66
2023-02-21T03:19:09.250Z,102179.13
2023-02-21T03:21:42.714Z,102174.84
2023-02-21T03:24:13.081Z,102181.75
2023-02-21T03:26:42.127Z,102180.00
2023-02-21T03:29:09.108Z,102178.25
2023-02-21T03:31:43.491Z,102177.38
2023-02-21T03:34:10.310Z,102174.78
2023-02-21T03:36:38.409Z,102173.03
2023-02-21T03:39:05.492Z,102178.28
2023-02-21T03:41:31.960Z,102179.13
2023-02-21T03:43:58.421Z,102176.47
2023-02-21T03:46:24.971Z,102176.47
2023-02-21T03:48:51.419Z,102167.81
2023-02-21T03:51:17.858Z,102168.66
2023-02-21T03:53:44.217Z,102172.09
2023-02-21T03:56:10.615Z,102171.22
2023-02-21T03:58:38.366Z,102173.84
2023-02-21T04:01:05.196Z,102167.72
2023-02-21T04:03:31.689Z,102160.75
2023-02-21T04:05:58.120Z,102164.28
2023-02-21T04:08:24.763Z,102168.59
2023-02-21T04:10:52.746Z,102171.22
2023-02-21T04:13:20.004Z,102177.34
2023-02-21T04:15:46.472Z,102173.81
2023-02-21T04:18:12.912Z,102170.28
2023-02-21T04:20:39.312Z,102176.41
2023-02-21T04:23:05.665Z,102165.91
2023-02-21T04:25:31.992Z,102169.44
2023-02-21T04:27:58.309Z,102162.47
2023-02-21T04:30:24.897Z,102167.72
2023-02-21T04:32:51.684Z,102160.75
2023-02-21T04:35:18.550Z,102151.16
2023-02-21T04:37:47.517Z,102151.16
2023-02-21T04:40:14.317Z,102157.34
2023-02-21T04:42:40.853Z,102157.28
2023-02-21T04:45:07.752Z,102150.28
2023-02-21T04:47:34.096Z,102151.19
2023-02-21T04:50:00.449Z,102151.19
2023-02-21T04:52:26.893Z,102150.28
2023-02-21T04:54:53.405Z,102154.63
2023-02-21T04:57:19.839Z,102153.78
2023-02-21T04:59:46.250Z,102150.28
2023-02-21T05:02:12.732Z,102153.81
2023-02-21T05:04:39.337Z,102159.06
2023-02-21T05:07:07.091Z,102164.25
2023-02-21T05:09:33.552Z,102156.38
2023-02-21T05:12:00.045Z,102156.44
2023-02-21T05:14:26.439Z,102151.19
2023-02-21T05:16:53.259Z,102161.69
2023-02-21T05:19:27.254Z,102167.81
2023-02-21T05:21:59.319Z,102165.19
2023-02-21T05:24:28.156Z,102162.56
2023-02-21T05:26:54.985Z,102168.59
2023-02-21T05:29:21.364Z,102167.75
2023-02-21T05:31:47.748Z,102173.03
2023-02-21T05:34:15.511Z,102167.81
2023-02-21T05:36:42.202Z,102164.31
2023-02-21T05:39:09.460Z,102162.56
2023-02-21T05:41:36.392Z,102165.25
2023-02-21T05:44:04.206Z,102172.16
2023-02-21T05:46:35.631Z,102170.47
2023-02-21T05:49:03.766Z,102173.03
2023-02-21T05:51:38.319Z,102168.72
2023-02-21T05:54:06.992Z,102170.44
2023-02-21T05:56:44.167Z,102170.44
2023-02-21T05:59:11.238Z,102178.28
2023-02-21T06:01:37.710Z,102183.44
2023-02-21T06:04:05.106Z,102186.91
2023-02-21T06:06:31.568Z,102178.28
2023-02-21T06:08:57.961Z,102166.97
2023-02-21T06:11:28.151Z,102174.84
2023-02-21T06:13:56.638Z,102173.13
2023-02-21T06:16:24.113Z,102182.69
2023-02-21T06:18:56.380Z,102173.16
2023-02-21T06:21:23.469Z,102184.53
2023-02-21T06:23:49.996Z,102174.06
2023-02-21T06:26:18.374Z,102171.44
2023-02-21T06:28:44.931Z,102175.75
2023-02-21T06:31:11.645Z,102179.28
2023-02-21T06:33:38.103Z,102181.03
2023-02-21T06:36:11.792Z,102181.84
2023-02-21T06:38:38.313Z,102180.06
2023-02-21T06:41:07.069Z,102180.91
2023-02-21T06:43:34.270Z,102184.47
2023-02-21T06:46:00.665Z,102180.06
2023-02-21T06:48:27.109Z,102181.91
2023-02-21T06:50:53.585Z,102180.06
2023-02-21T06:53:20.006Z,102179.22
2023-02-21T06:55:46.341Z,102177.50
2023-02-21T06:58:12.689Z,102183.59
2023-02-21T07:00:39.235Z,102181.84
2023-02-21T07:03:05.630Z,102183.69
2023-02-21T07:05:36.749Z,102182.78
2023-02-21T07:08:03.613Z,102188.94
2023-02-21T07:10:30.085Z,102181.91
2023-02-21T07:12:56.688Z,102184.53
2023-02-21T07:15:23.035Z,102181.91
2023-02-21T07:17:49.430Z,102181.91
2023-02-21T07:20:15.808Z,102182.69
2023-02-21T07:22:42.183Z,102182.66
2023-02-21T07:25:08.747Z,102185.31
2023-02-21T07:27:35.121Z,102185.25
2023-02-21T07:30:01.514Z,102173.13
2023-02-21T07:32:28.274Z,102184.41
2023-02-21T07:34:54.657Z,102183.53
2023-02-21T07:37:21.071Z,102180.91
2023-02-21T07:39:47.404Z,102188.75
2023-02-21T07:42:13.856Z,102187.03
2023-02-21T07:44:40.255Z,102200.13
2023-02-21T07:47:06.708Z,102201.03
2023-02-21T07:49:38.369Z,102201.03
2023-02-21T07:52:04.735Z,102199.25
2023-02-21T07:54:31.138Z,102198.34
2023-02-21T07:56:57.538Z,102199.19
2023-02-21T07:59:24.085Z,102203.53
2023-02-21T08:01:50.503Z,102201.75
2023-02-21T08:04:21.155Z,102194.78
2023-02-21T08:06:49.250Z,102200.03
2023-02-21T08:09:16.333Z,102201.75
2023-02-21T08:11:42.769Z,102197.41
2023-02-21T08:14:09.221Z,102202.63
2023-02-21T08:16:35.671Z,102201.75
2023-02-21T08:19:02.079Z,102199.19
2023-02-21T08:21:28.651Z,102196.56
2023-02-21T08:23:55.260Z,102192.22
2023-02-21T08:26:22.322Z,102199.25
2023-02-21T08:28:48.721Z,102188.72
2023-02-21T08:31:15.479Z,102187.75
2023-02-21T08:33:42.017Z,102190.34
2023-02-21T08:36:08.440Z,102194.72
2023-02-21T08:38:34.778Z,102186.91
2023-02-21T08:41:02.784Z,102190.47
2023-02-21T08:43:29.310Z,102183.44
2023-02-21T08:45:55.646Z,102184.31
2023-02-21T08:48:21.979Z,102181.63
2023-02-21T08:50:48.337Z,102186.88
2023-02-21T08:53:15.579Z,102185.16
2023-02-21T08:55:43.005Z,102195.63
2023-02-21T08:58:11.411Z,102189.50
2023-02-21T09:00:37.972Z,102185.09
2023-02-21T09:03:04.410Z,102185.16
2023-02-21T09:05:31.832Z,102177.28
2023-02-21T09:08:01.419Z,102183.44
2023-02-21T09:10:35.457Z,102179.06
2023-02-21T09:13:03.100Z,102177.38
2023-02-21T09:15:29.617Z,102178.28
2023-02-21T09:17:56.629Z,102180.84
2023-02-21T09:20:26.036Z,102175.63
2023-02-21T09:22:52.969Z,102171.22
2023-02-21T09:25:22.925Z,102170.44
2023-02-21T09:27:49.285Z,102169.59
2023-02-21T09:30:23.823Z,102169.53
2023-02-21T09:32:50.852Z,102171.16
2023-02-21T09:35:18.103Z,102173.81
2023-02-21T09:37:45.728Z,102163.34
2023-02-21T09:41:04.799Z,102164.25
2023-02-21T09:43:36.049Z,102152.88
2023-02-21T09:46:07.325Z,102158.91
2023-02-21T09:48:33.738Z,102162.41
2023-02-21T09:51:03.957Z,102162.34
2023-02-21T09:53:44.243Z,102164.09
2023-02-21T09:56:21.455Z,102161.47
2023-02-21T09:58:49.399Z,102152.72
2023-02-21T10:01:32.460Z,102152.66
2023-02-21T10:04:25.771Z,102148.31
2023-02-21T10:06:59.771Z,102152.66
2023-02-21T10:09:49.978Z,102152.66
2023-02-21T10:12:35.674Z,102144.69
2023-02-21T10:15:15.554Z,102147.31
2023-02-21T10:18:00.632Z,102143.78
2023-02-21T10:20:38.388Z,102150.78
2023-02-21T10:23:15.774Z,102148.97
2023-02-21T10:25:46.472Z,102150.75
2023-02-21T10:28:22.563Z,102158.63
2023-02-21T10:30:52.028Z,102162.03
2023-02-21T10:33:18.543Z,102153.28
2023-02-21T10:35:44.936Z,102164.59
2023-02-21T10:38:20.517Z,102155.88
2023-02-21T10:40:51.560Z,102159.34
2023-02-21T10:43:21.086Z,102155.75
2023-02-21T10:46:10.883Z,102147.97
2023-02-21T10:48:39.111Z,102160.94
2023-02-21T10:51:36.944Z,102154.81
2023-02-21T10:54:24.030Z,102154.72
2023-02-21T10:56:53.002Z,102160.81
2023-02-21T10:59:33.682Z,102164.41
2023-02-21T11:02:02.430Z,102158.22
2023-02-21T11:04:35.247Z,102152.13
2023-02-21T11:07:07.260Z,102155.59
2023-02-21T11:09:43.337Z,102158.22
2023-02-21T11:12:15.556Z,102156.53
2023-02-21T11:14:43.664Z,102149.47
2023-02-21T11:17:36.122Z,102147.75
2023-02-21T11:20:14.781Z,102151.19
2023-02-21T11:22:43.984Z,102146.81
2023-02-21T11:25:17.855Z,102146.75
2023-02-21T11:27:46.479Z,102150.31
2023-02-21T11:30:21.418Z,102148.56
2023-02-21T11:32:56.903Z,102150.22
2023-02-21T11:35:34.345Z,102141.47
2023-02-21T11:38:04.608Z,102144.94
2023-02-21T11:40:41.484Z,102139.72
2023-02-21T11:43:19.730Z,102139.72
2023-02-21T11:46:29.395Z,102141.47
2023-02-21T11:49:06.317Z,102138.78
2023-02-21T11:51:49.127Z,102137.03
2023-02-21T11:54:15.627Z,102132.66
2023-02-21T11:56:49.119Z,102131.81
2023-02-21T11:59:37.283Z,102134.44
2023-02-21T12:02:15.895Z,102135.38
2023-02-21T12:05:07.199Z,102132.78
2023-02-21T12:07:40.052Z,102127.50
2023-02-21T12:10:32.504Z,102118.78
2023-02-21T12:14:00.760Z,102122.28
2023-02-21T12:17:04.665Z,102124.88
2023-02-21T12:20:03.972Z,102127.53
2023-02-21T12:22:45.257Z,102128.41
2023-02-21T12:25:29.431Z,102123.97
2023-02-21T12:28:17.257Z,102115.19
2023-02-21T12:30:49.781Z,102117.88
2023-02-21T12:33:16.098Z,102110.97
2023-02-21T12:36:05.845Z,102112.75
2023-02-21T12:38:47.143Z,102107.53
2023-02-21T12:41:45.981Z,102107.53
2023-02-21T12:44:20.783Z,102107.53
2023-02-21T12:47:10.408Z,102105.78
2023-02-21T12:50:01.654Z,102100.44
2023-02-21T12:52:34.184Z,102095.19
2023-02-21T12:55:03.130Z,102096.91
2023-02-21T12:57:54.392Z,102091.66
2023-02-21T13:00:38.694Z,102091.66
2023-02-21T13:03:34.239Z,102099.47
2023-02-21T13:06:19.692Z,102094.25
2023-02-21T13:08:58.251Z,102085.47
2023-02-21T13:11:36.683Z,102081.97
2023-02-21T13:14:10.457Z,102077.56
2023-02-21T13:16:36.900Z,102080.13
2023-02-21T13:19:07.886Z,102072.25
2023-02-21T13:21:52.896Z,102075.75
2023-02-21T13:24:42.915Z,102075.75
2023-02-21T13:27:30.448Z,102080.09
2023-02-21T13:30:12.804Z,102067.78
2023-02-21T13:32:40.417Z,102067.00
2023-02-21T13:35:09.558Z,102066.94
2023-02-21T13:37:44.890Z,102066.06
2023-02-21T13:40:24.053Z,102065.28
2023-02-21T13:43:02.274Z,102056.53
2023-02-21T13:45:28.843Z,102048.59
2023-02-21T13:47:58.110Z,102045.09
2023-02-21T13:50:39.827Z,102048.69
2023-02-21T13:53:09.466Z,102040.88
2023-02-21T13:55:37.558Z,102045.16
2023-02-21T13:58:05.217Z,102040.78
2023-02-21T14:00:31.645Z,102039.88
2023-02-21T14:03:01.273Z,102043.31
2023-02-21T14:05:47.979Z,102033.66
2023-02-21T14:08:38.027Z,102039.72
2023-02-21T14:11:07.134Z,102042.41
2023-02-21T14:13:47.921Z,102037.03
2023-02-21T14:16:15.034Z,102031.81
2023-02-21T14:19:08.027Z,102039.59
2023-02-21T14:21:45.382Z,102044.00
2023-02-21T14:24:27.426Z,102038.78
2023-02-21T14:27:26.364Z,102036.09
2023-02-21T14:30:01.623Z,102036.16
2023-02-21T14:32:35.075Z,102036.16
2023-02-21T14:35:21.333Z,102033.53
2023-02-21T14:37:57.953Z,102033.47
2023-02-21T14:40:27.187Z,102032.50
2023-02-21T14:43:02.045Z,102032.50
2023-02-21T14:45:56.644Z,102029.88
2023-02-21T14:48:25.801Z,102030.84
2023-02-21T14:51:19.669Z,102034.34
2023-02-21T14:54:00.339Z,102031.72
2023-02-21T14:56:51.368Z,102031.75
2023-02-21T14:59:26.953Z,102024.84
2023-02-21T15:02:30.830Z,102023.94
2023-02-21T15:05:12.526Z,102021.31
2023-02-21T15:07:47.760Z,102019.56
2023-02-21T15:10:14.225Z,102020.53
2023-02-21T15:13:01.889Z,102021.50
2023-02-21T15:15:35.753Z,102020.56
2023-02-21T15:18:10.968Z,102019.84
2023-02-21T15:20:40.595Z,102014.63
2023-02-21T15:23:09.850Z,102010.13
2023-02-21T15:25:36.762Z,102010.06
2023-02-21T15:28:06.478Z,102011.91
2023-02-21T15:30:37.668Z,102011.97
2023-02-21T15:33:13.942Z,102012.09
2023-02-21T15:35:49.682Z,102012.09
2023-02-21T15:38:31.142Z,102012.88
2023-02-21T15:41:03.302Z,102019.91
2023-02-21T15:43:38.769Z,102007.72
2023-02-21T15:46:07.882Z,102005.09
2023-02-21T15:48:35.300Z,102012.00
2023-02-21T15:51:06.313Z,102008.53
2023-02-21T15:53:32.841Z,102004.19
2023-02-21T15:56:21.611Z,102005.00
2023-02-21T15:59:09.652Z,102000.78
2023-02-21T16:01:36.268Z,102006.09
2023-02-21T16:04:22.089Z,102007.81
2023-02-21T16:07:14.184Z,102009.63
2023-02-21T16:09:46.687Z,102000.03
2023-02-21T16:12:12.982Z,101996.50
2023-02-21T16:14:43.083Z,101995.75
2023-02-21T16:17:31.289Z,102001.97
2023-02-21T16:20:23.193Z,102002.84
2023-02-21T16:23:07.306Z,101997.63
2023-02-21T16:25:34.437Z,101992.38
2023-02-21T16:28:02.022Z,101990.72
2023-02-21T16:30:31.874Z,101989.75
2023-02-21T16:33:05.525Z,101986.25
2023-02-21T16:35:32.802Z,101988.84
2023-02-21T16:38:00.341Z,101992.38
2023-02-21T16:40:36.306Z,101989.84
2023-02-21T16:43:04.153Z,101992.38
2023-02-21T16:45:31.907Z,101990.78
2023-02-21T16:48:05.247Z,101990.78
2023-02-21T16:50:37.713Z,101996.09
2023-02-21T16:53:04.889Z,101996.19
2023-02-21T16:55:31.648Z,101990.03
2023-02-21T16:58:08.438Z,101994.31
2023-02-21T17:00:34.914Z,101989.06
2023-02-21T17:03:01.552Z,101986.44
2023-02-21T17:05:29.076Z,101983.06
2023-02-21T17:07:57.425Z,101984.00
2023-02-21T17:10:24.443Z,101978.66
2023-02-21T17:12:50.941Z,101983.91
2023-02-21T17:15:17.464Z,101988.38
2023-02-21T17:17:48.485Z,101975.31
2023-02-21T17:20:19.140Z,101983.28
2023-02-21T17:22:45.530Z,101974.63
2023-02-21T17:25:11.952Z,101979.84
2023-02-21T17:27:38.477Z,101982.41
2023-02-21T17:30:06.653Z,101979.72
2023-02-21T17:32:33.322Z,101987.53
2023-02-21T17:34:59.865Z,101987.53
2023-02-21T17:37:26.332Z,101988.34
2023-02-21T17:39:54.011Z,101982.19
2023-02-21T17:42:20.541Z,101987.41
2023-02-21T17:44:51.711Z,101985.72
2023-02-21T17:47:19.661Z,101990.09
2023-02-21T17:49:48.133Z,101987.47
2023-02-21T17:52:15.313Z,101990.09
2023-02-21T17:54:42.276Z,101990.09
2023-02-21T17:57:09.665Z,101982.28
2023-02-21T17:59:36.827Z,101985.81
2023-02-21T18:02:03.524Z,101980.69
2023-02-21T18:04:29.973Z,101985.03
2023-02-21T18:06:56.529Z,101979.78
2023-02-21T18:09:24.140Z,101991.03
2023-02-21T18:11:52.778Z,101990.19
2023-02-21T18:14:19.954Z,101991.03
2023-02-21T18:16:46.316Z,101986.69
2023-02-21T18:19:12.965Z,101985.91
2023-02-21T18:21:41.299Z,101992.88
2023-02-21T18:24:09.333Z,101985.81
2023-02-21T18:26:35.843Z,101990.16
2023-02-21T18:29:02.495Z,101986.63
2023-02-21T18:31:29.030Z,101991.81
2023-02-21T18:33:55.449Z,101989.25
2023-02-21T18:36:21.956Z,101988.34
2023-02-21T18:38:49.552Z,101981.38
2023-02-21T18:41:20.239Z,101984.84
2023-02-21T18:43:46.695Z,101984.00
2023-02-21T18:46:16.297Z,101976.16
2023-02-21T18:48:47.639Z,101977.06
2023-02-21T18:51:16.329Z,101974.38
2023-02-21T18:53:43.774Z,101975.13
2023-02-21T18:56:13.245Z,101966.38
2023-02-21T18:58:40.247Z,101965.56
2023-02-21T19:01:09.679Z,101973.47
2023-02-21T19:03:37.217Z,101969.91
2023-02-21T19:06:03.798Z,101972.53
2023-02-21T19:08:30.161Z,101964.72
2023-02-21T19:10:56.539Z,101963.75
2023-02-21T19:13:22.912Z,101961.97
2023-02-21T19:15:49.390Z,101965.47
2023-02-21T19:18:16.846Z,101969.91
2023-02-21T19:20:43.762Z,101965.56
2023-02-21T19:23:10.508Z,101964.78
2023-02-21T19:25:37.096Z,101952.47
2023-02-21T19:28:06.621Z,101951.56
2023-02-21T19:30:36.182Z,101945.41
2023-02-21T19:33:07.948Z,101947.09
2023-02-21T19:35:35.700Z,101946.25
2023-02-21T19:38:05.605Z,101944.47
2023-02-21T19:40:32.703Z,101946.25
2023-02-21T19:42:59.281Z,101948.94
2023-02-21T19:45:25.843Z,101943.69
2023-02-21T19:47:52.292Z,101941.97
2023-02-21T19:50:19.040Z,101940.19
2023-02-21T19:52:51.792Z,101936.66
2023-02-21T19:55:18.416Z,101939.28
2023-02-21T19:57:44.816Z,101931.41
2023-02-21T20:00:11.933Z,101939.22
2023-02-21T20:02:38.311Z,101938.38
2023-02-21T20:05:05.241Z,101941.03
2023-02-21T20:07:31.613Z,101944.53
2023-02-21T20:09:58.027Z,101947.13
2023-02-21T20:12:24.560Z,101946.31
2023-02-21T20:14:51.430Z,101948.94
2023-02-21T20:17:18.072Z,101944.59
2023-02-21T20:19:44.809Z,101942.81
2023-02-21T20:22:11.612Z,101941.13
2023-02-21T20:24:38.344Z,101946.38
2023-02-21T20:27:04.983Z,101944.66
2023-02-21T20:29:31.424Z,101938.56
2023-02-21T20:31:58.646Z,101933.34
2023-02-21T20:34:25.155Z,101946.44
2023-02-21T20:36:51.768Z,101933.34
2023-02-21T20:39:31.119Z,101933.34
2023-02-21T20:42:06.498Z,101927.22
2023-02-21T20:44:34.922Z,101934.25
2023-02-21T20:47:01.888Z,101931.69
2023-02-21T20:49:28.430Z,101936.94
2023-02-21T20:51:54.823Z,101934.25
2023-02-21T20:54:22.087Z,101934.28
2023-02-21T20:56:54.481Z,101922.88
2023-02-21T20:59:26.707Z,101917.66
2023-02-21T21:01:53.757Z,101915.91
2023-02-21T21:04:26.535Z,101922.00
2023-02-21T21:06:56.607Z,101906.28
2023-02-21T21:09:28.811Z,101915.00
2023-02-21T21:12:00.521Z,101915.91
2023-02-21T21:14:28.798Z,101912.41
2023-02-21T21:16:56.763Z,101915.09
2023-02-21T21:19:26.052Z,101918.59
2023-02-21T21:21:53.495Z,101916.00
2023-02-21T21:24:20.666Z,101924.88
2023-02-21T21:26:53.170Z,101920.53
2023-02-21T21:29:24.502Z,101918.06
2023-02-21T21:31:53.415Z,101924.09
2023-02-21T21:34:23.027Z,101924.97
2023-02-21T21:36:54.821Z,101918.84
2023-02-21T21:39:25.179Z,101917.06
2023-02-21T21:41:58.642Z,101911.75
2023-02-21T21:44:26.837Z,101915.34
2023-02-21T21:46:53.993Z,101900.50
2023-02-21T21:49:22.690Z,101913.53
2023-02-21T21:51:49.457Z,101903.13
2023-02-21T21:54:20.509Z,101898.72
2023-02-21T21:56:48.439Z,101904.06
2023-02-21T21:59:20.709Z,101901.41
2023-02-21T22:01:48.182Z,101890.97
2023-02-21T22:04:14.818Z,101889.22
2023-02-21T22:06:41.895Z,101885.69
2023-02-21T22:09:09.440Z,101879.63
2023-02-21T22:11:36.509Z,101868.25
2023-02-21T22:14:03.470Z,101865.75
2023-02-21T22:16:37.650Z,101870.13
2023-02-21T22:19:04.197Z,101867.50
2023-02-21T22:21:31.771Z,101859.69
2023-02-21T22:23:58.548Z,101861.50
2023-02-21T22:26:27.030Z,101858.88
2023-02-21T22:28:54.135Z,101859.75
2023-02-21T22:31:20.828Z,101858.88
2023-02-21T22:33:47.272Z,101852.75
2023-02-21T22:36:14.143Z,101846.81
2023-02-21T22:38:45.521Z,101848.53
2023-02-21T22:41:22.180Z,101833.72
2023-02-21T22:43:49.773Z,101837.22
2023-02-21T22:46:17.397Z,101823.31
2023-02-21T22:48:44.766Z,101824.22
2023-02-21T22:51:16.046Z,101824.22
2023-02-21T22:53:49.961Z,101818.19
2023-02-21T22:56:23.287Z,101817.22
2023-02-21T22:58:57.100Z,101822.47
2023-02-21T23:01:27.920Z,101811.16
2023-02-21T23:04:10.301Z,101812.88
2023-02-21T23:06:37.891Z,101817.31
2023-02-21T23:09:12.173Z,101804.34
2023-02-21T23:11:46.169Z,101802.50
2023-02-21T23:14:15.970Z,101799.88
2023-02-21T23:16:43.238Z,101790.34
2023-02-21T23:19:10.278Z,101796.44
2023-02-21T23:21:45.117Z,101780.84
2023-02-21T23:24:12.589Z,101776.56
2023-02-21T23:26:44.189Z,101777.34
2023-02-21T23:29:15.300Z,101776.56
2023-02-21T23:31:41.993Z,101778.25
2023-02-21T23:34:10.131Z,101776.56
2023-02-21T23:36:39.348Z,101775.75
2023-02-21T23:39:08.919Z,101769.59
2023-02-21T23:41:40.747Z,101760.88
2023-02-21T23:44:12.432Z,101767.94
2023-02-21T23:46:40.590Z,101759.19
2023-02-21T23:49:10.659Z,101767.13
2023-02-21T23:51:37.996Z,101776.75
2023-02-21T23:54:07.131Z,101769.88
2023-02-21T23:56:33.770Z,101764.66
2023-02-21T23:59:00.142Z,101774.28
